Flight Number: EUR1121 Duration: 2:30
Departure: Gatwick Airport (EGKK) at 08:00 Distance: 927 Nm
Arrival: Gibraltar Airport (LXGB) at 10:30 Equipment: A321

Weather Information
London / Gatwick Airport, United Kingdom (EGKK) 51-09N 000-11W 0M Oct 19, 2018 - 01:50 PM EDT / 2018.10.19 1750 UTC
Wind: from the WNW (300 degrees) at 5 MPH (4 KT) (direction variable):0
Visibility: greater than 7 mile(s):0 Temperature: 55 F (13 C) Dew Point: 44 F (7 C) Relative Humidity: 66% Pressure (altimeter): 30.33 in. Hg (1027 hPa)
ob: EGKK 191750Z 30004KT 190V340 CAVOK 13/07 Q1027 cycle: 18
Sunrise: 06:35 Sunset: 16:55 (UTC)

Gibraltar, Gibraltar (LXGB) 36-09N 005-21W 0M Oct 19, 2018 - 12:50 PM EDT / 2018.10.19 1650 UTC
Wind: from the ENE (060 degrees) at 5 MPH (4 KT):0
Visibility: greater than 7 mile(s):0
Sky conditions: overcast Weather: showers in the vicinity Temperature: 66 F (19 C) Dew Point: 57 F (14 C) Relative Humidity: 72% Pressure (altimeter): 29.85 in. Hg (1011 hPa)
ob: LXGB 191650Z 06004KT 9999 VCSH FEW020 SCT050 OVC080 19/14 Q1011 TEMPO 7000 SHRA BKN020 cycle: 17
Sunrise: 06:35 Sunset: 17:37 (UTC)

TAF:2018/08/03 18:09 TAF TAF LXGB 032004Z 0318/0422 CNL

Previous Pireps for this route
Date Aircraft Flight time Fuel used Landing rate On time
2012-08-01A3212.49150000No
2012-12-08B73702.1920172-541No
2013-01-20B73702.40-74-744No
2013-02-08B7372.44135860No
2013-03-02B7372.37151140No
2013-03-06A3212.5217006-440No
2013-03-10B7372.31141150Yes
2013-03-26B73702.4214843-237No
2013-04-25A32103.2417795-782No
2013-05-26B73702.4314356-314Yes
2013-09-15B73702.309253-49Charter
2013-11-29B7372.24150000No
2013-12-27B7373.05180000No
2014-04-24B7372.3514351-212No
2015-01-12B7372.3814257-177No
2015-01-13B7372,3813500-250Yes
2015-03-30A32102.2615727-50Yes
2015-05-26B7372.38208910No
2015-07-20B7372.3213242-82Yes
2015-09-14B73702.4713967-495No
2016-06-16B73702.2514033-31Yes
2017-01-21B73702.3720782-181No
(pireps marked green are flown by you)

Route map